Time;durP1;ratioP1;P1;durP2;ratioP2;P2;SDS_P1;SDS_P2;PMS_P1;PMS_P2;Temp;Humidity;BMP_temperature;BMP_pressure;BME280_temperature;BME280_humidity;BME280_pressure;Samples;Min_cycle;Max_cycle;Signal;HPM_P1;HPM_P2
2023/03/02 00:02:01;;;;;;;31.95;19.95;;;4.00;99.90;;;;;;5044118;28;20039;-63
2023/03/02 00:04:31;;;;;;;40.78;20.60;;;4.00;99.90;;;;;;5032203;28;20041;-63
2023/03/02 00:07:00;;;;;;;37.05;21.08;;;3.90;99.90;;;;;;5062119;28;20406;-63
2023/03/02 00:09:27;;;;;;;38.67;20.55;;;3.90;99.90;;;;;;5054447;28;20530;-63
2023/03/02 00:11:53;;;;;;;33.88;19.85;;;4.00;99.90;;;;;;5040614;28;20076;-63
2023/03/02 00:14:19;;;;;;;38.45;20.73;;;3.90;99.90;;;;;;5057905;28;20530;-63
2023/03/02 00:16:47;;;;;;;38.40;20.48;;;3.90;99.90;;;;;;5047652;28;20059;-63
2023/03/02 00:19:13;;;;;;;35.47;19.90;;;3.90;99.90;;;;;;5043746;28;20037;-63
2023/03/02 00:21:40;;;;;;;34.53;20.35;;;3.90;99.90;;;;;;5071961;28;20078;-63
2023/03/02 00:24:06;;;;;;;38.00;21.10;;;4.00;99.90;;;;;;5073161;28;20444;-63
2023/03/02 00:26:35;;;;;;;35.78;19.27;;;3.90;99.90;;;;;;5061505;28;20051;-63
2023/03/02 00:29:02;;;;;;;34.97;19.70;;;3.90;99.90;;;;;;5054501;28;20411;-63
2023/03/02 00:31:27;;;;;;;36.85;20.52;;;3.90;99.90;;;;;;5046000;28;20045;-63
2023/03/02 00:33:53;;;;;;;35.97;19.23;;;3.90;99.90;;;;;;5065637;28;20037;-63
2023/03/02 00:36:20;;;;;;;34.15;19.90;;;3.90;99.90;;;;;;5047449;28;20052;-63
2023/03/02 00:38:46;;;;;;;32.60;19.55;;;3.90;99.90;;;;;;5069269;28;20075;-63
2023/03/02 00:41:14;;;;;;;33.72;19.33;;;3.90;99.90;;;;;;5071534;28;20024;-63
2023/03/02 00:43:40;;;;;;;35.28;19.10;;;3.90;99.90;;;;;;5070826;28;20040;-63
2023/03/02 00:46:11;;;;;;;32.65;19.05;;;3.90;99.90;;;;;;5042871;28;20123;-63
2023/03/02 00:48:37;;;;;;;34.70;19.40;;;3.90;99.90;;;;;;5057997;28;20052;-63
2023/03/02 00:51:04;;;;;;;35.58;19.42;;;3.90;99.90;;;;;;5052412;28;20394;-63
2023/03/02 00:53:29;;;;;;;34.83;19.20;;;3.90;99.90;;;;;;5066340;28;20499;-63
2023/03/02 00:55:55;;;;;;;35.88;20.27;;;3.90;99.90;;;;;;5043778;28;20072;-63
2023/03/02 00:58:21;;;;;;;36.70;19.73;;;3.90;99.90;;;;;;5052623;28;20478;-63
2023/03/02 01:00:47;;;;;;;35.10;19.58;;;3.90;99.90;;;;;;5048921;28;20138;-63
2023/03/02 01:03:13;;;;;;;37.72;20.15;;;3.90;99.90;;;;;;5045664;28;20486;-63
2023/03/02 01:05:39;;;;;;;33.80;19.95;;;3.80;99.90;;;;;;5065990;28;20072;-63
2023/03/02 01:08:05;;;;;;;37.38;20.70;;;3.90;99.90;;;;;;5049872;28;20102;-63
2023/03/02 01:10:31;;;;;;;34.15;19.35;;;3.80;99.90;;;;;;5042559;28;20390;-63
2023/03/02 01:12:57;;;;;;;34.47;21.02;;;3.80;99.90;;;;;;5068505;28;20490;-63
2023/03/02 01:15:22;;;;;;;34.83;19.83;;;3.80;99.90;;;;;;5065549;28;20102;-63
2023/03/02 01:17:48;;;;;;;37.58;21.05;;;3.80;99.90;;;;;;5044822;28;20063;-63
2023/03/02 01:20:15;;;;;;;35.42;19.27;;;3.80;99.90;;;;;;5063520;28;20135;-63
2023/03/02 01:22:42;;;;;;;38.75;21.98;;;3.80;99.90;;;;;;5053175;28;20056;-63
2023/03/02 01:25:08;;;;;;;40.95;22.33;;;3.80;99.90;;;;;;5049438;28;20074;-63
2023/03/02 01:27:34;;;;;;;42.15;22.73;;;3.80;99.90;;;;;;5069136;28;20039;-63
2023/03/02 01:29:59;;;;;;;40.58;21.80;;;3.80;99.90;;;;;;5070563;28;20028;-63
2023/03/02 01:32:25;;;;;;;42.40;23.02;;;3.80;99.90;;;;;;5064907;28;20033;-63
2023/03/02 01:34:51;;;;;;;40.13;22.13;;;3.80;99.90;;;;;;5053837;28;20041;-63
2023/03/02 01:37:17;;;;;;;38.90;22.30;;;3.80;99.90;;;;;;5067313;28;20032;-63
2023/03/02 01:39:42;;;;;;;43.17;22.65;;;3.80;99.90;;;;;;5049697;28;20135;-63
2023/03/02 01:42:08;;;;;;;42.60;22.90;;;3.70;99.90;;;;;;5057800;28;20028;-63
2023/03/02 01:45:24;;;;;;;46.83;24.73;;;3.80;99.90;;;;;;5027771;28;20448;-63
2023/03/02 01:47:50;;;;;;;42.97;22.35;;;3.80;99.90;;;;;;5018245;28;20051;-63
2023/03/02 01:50:22;;;;;;;44.53;23.83;;;3.80;99.90;;;;;;5058044;28;20032;-63
2023/03/02 01:52:49;;;;;;;44.65;23.40;;;3.80;99.90;;;;;;5042443;28;20033;-63
2023/03/02 01:55:19;;;;;;;46.33;23.50;;;3.70;99.90;;;;;;5050331;28;20083;-63
2023/03/02 01:57:48;;;;;;;49.35;24.08;;;3.80;99.90;;;;;;5069070;28;20041;-63
2023/03/02 02:00:19;;;;;;;45.30;25.23;;;3.70;99.90;;;;;;5063752;28;20036;-63
2023/03/02 02:02:49;;;;;;;47.55;24.63;;;3.80;99.90;;;;;;5043743;28;20064;-63
2023/03/02 02:05:21;;;;;;;48.90;24.88;;;3.80;99.90;;;;;;5051538;28;20413;-63
2023/03/02 02:07:46;;;;;;;44.97;23.93;;;3.80;99.90;;;;;;5051884;28;20044;-63
2023/03/02 02:10:12;;;;;;;46.63;24.35;;;3.70;99.90;;;;;;5058943;28;20296;-63
2023/03/02 02:12:38;;;;;;;47.13;23.95;;;3.80;99.90;;;;;;5045084;28;20507;-63
2023/03/02 02:15:05;;;;;;;51.03;25.55;;;3.70;99.90;;;;;;5049945;28;20087;-63
2023/03/02 02:17:31;;;;;;;51.40;25.10;;;3.80;99.90;;;;;;5047043;28;20116;-63
2023/03/02 02:20:08;;;;;;;44.65;24.10;;;3.80;99.90;;;;;;5064534;28;20561;-63
2023/03/02 02:22:51;;;;;;;46.85;25.20;;;3.70;99.90;;;;;;5064495;28;20068;-63
2023/03/02 02:25:42;;;;;;;47.97;24.20;;;3.80;99.90;;;;;;5053943;28;20392;-63
2023/03/02 02:28:13;;;;;;;48.70;24.23;;;3.70;99.90;;;;;;5040947;28;20063;-63
2023/03/02 02:30:40;;;;;;;50.55;25.83;;;3.70;99.90;;;;;;5060044;28;20409;-63
2023/03/02 02:33:12;;;;;;;43.53;24.58;;;3.70;99.90;;;;;;5042293;28;20036;-63
2023/03/02 02:35:39;;;;;;;49.92;24.45;;;3.70;99.90;;;;;;5035268;28;20041;-63
2023/03/02 02:38:07;;;;;;;44.40;22.95;;;3.70;99.90;;;;;;5063332;28;20457;-63
2023/03/02 02:40:57;;;;;;;44.58;22.80;;;3.70;99.90;;;;;;5043389;28;20036;-63
2023/03/02 02:43:23;;;;;;;42.63;22.65;;;3.70;99.90;;;;;;5064742;28;20040;-63
2023/03/02 02:45:53;;;;;;;43.17;23.10;;;3.60;99.90;;;;;;5051228;28;20041;-63
2023/03/02 02:48:23;;;;;;;46.05;22.48;;;3.60;99.90;;;;;;5067664;28;20064;-63
2023/03/02 02:50:58;;;;;;;45.00;23.30;;;3.60;99.90;;;;;;5039597;28;20511;-63
2023/03/02 02:53:28;;;;;;;44.08;22.70;;;3.60;99.90;;;;;;5069734;28;20424;-63
2023/03/02 02:55:57;;;;;;;41.22;22.77;;;3.60;99.90;;;;;;5045543;28;20063;-63
2023/03/02 02:58:44;;;;;;;41.42;22.38;;;3.50;99.90;;;;;;5056681;28;20155;-63
2023/03/02 03:01:15;;;;;;;39.45;21.42;;;3.50;99.90;;;;;;5036055;28;20456;-63
2023/03/02 03:03:54;;;;;;;42.42;21.63;;;3.50;99.90;;;;;;5045025;28;20044;-63
2023/03/02 03:06:26;;;;;;;42.70;21.98;;;3.50;99.90;;;;;;5069224;28;20032;-63
2023/03/02 03:08:54;;;;;;;38.67;20.77;;;3.50;99.90;;;;;;5051736;28;20044;-63
2023/03/02 03:11:23;;;;;;;40.47;22.17;;;3.50;99.90;;;;;;5044259;28;20045;-63
2023/03/02 03:14:07;;;;;;;40.55;21.63;;;3.50;99.90;;;;;;5069435;28;20047;-63
2023/03/02 03:16:33;;;;;;;36.90;20.60;;;3.50;99.90;;;;;;5055999;28;20041;-63
2023/03/02 03:19:26;;;;;;;41.15;20.80;;;3.40;99.90;;;;;;5062460;28;20037;-63
2023/03/02 03:21:54;;;;;;;36.63;20.58;;;3.40;99.90;;;;;;5036246;28;20052;-63
2023/03/02 03:24:21;;;;;;;42.38;21.92;;;3.40;99.90;;;;;;5044905;28;20037;-63
2023/03/02 03:26:47;;;;;;;39.15;21.05;;;3.40;99.90;;;;;;5065800;28;20421;-63
2023/03/02 03:29:14;;;;;;;40.50;21.40;;;3.40;99.90;;;;;;5053492;28;20047;-63
2023/03/02 03:31:40;;;;;;;37.75;20.25;;;3.40;99.90;;;;;;5054143;28;20049;-63
2023/03/02 03:34:06;;;;;;;40.17;20.67;;;3.40;99.90;;;;;;5048649;28;20052;-63
2023/03/02 03:36:32;;;;;;;37.70;20.17;;;3.40;99.90;;;;;;5064339;28;20044;-63
2023/03/02 03:38:58;;;;;;;38.83;21.17;;;3.40;99.90;;;;;;5040100;28;20089;-63
2023/03/02 03:41:24;;;;;;;39.20;21.73;;;3.40;99.90;;;;;;5060955;28;20067;-63
2023/03/02 03:43:51;;;;;;;38.35;20.25;;;3.40;99.90;;;;;;5066334;28;20482;-63
2023/03/02 03:46:17;;;;;;;37.60;20.60;;;3.30;99.90;;;;;;5045036;28;20093;-63
2023/03/02 03:48:43;;;;;;;38.60;20.88;;;3.30;99.90;;;;;;5067294;28;20521;-63
2023/03/02 03:51:09;;;;;;;39.53;20.88;;;3.30;99.90;;;;;;5040191;28;20036;-63
2023/03/02 03:53:35;;;;;;;39.45;20.63;;;3.30;99.90;;;;;;5059246;28;20398;-63
2023/03/02 03:56:02;;;;;;;36.85;19.80;;;3.30;99.90;;;;;;5038542;28;20045;-63
2023/03/02 03:58:29;;;;;;;38.50;20.42;;;3.20;99.90;;;;;;5063995;28;20048;-63
2023/03/02 04:00:54;;;;;;;35.25;19.80;;;3.30;99.90;;;;;;5071151;28;20066;-63
2023/03/02 04:03:21;;;;;;;35.08;18.55;;;3.20;99.90;;;;;;5031548;28;21202;-63
2023/03/02 04:05:47;;;;;;;34.95;18.58;;;3.20;99.90;;;;;;5055670;28;20040;-63
2023/03/02 04:08:13;;;;;;;34.50;18.55;;;3.20;99.90;;;;;;5061064;28;20032;-63
2023/03/02 04:10:39;;;;;;;33.28;17.17;;;3.20;99.90;;;;;;5040442;28;20044;-63
2023/03/02 04:13:06;;;;;;;32.15;16.85;;;3.20;99.90;;;;;;5052138;28;20457;-63
2023/03/02 04:15:31;;;;;;;32.55;17.58;;;3.20;99.90;;;;;;5072979;28;20032;-63
2023/03/02 04:17:57;;;;;;;33.75;17.85;;;3.20;99.90;;;;;;5063227;28;20035;-63
2023/03/02 04:20:24;;;;;;;36.83;18.67;;;3.20;99.90;;;;;;5054367;28;20033;-63
2023/03/02 04:22:52;;;;;;;35.05;18.00;;;3.10;99.90;;;;;;5052174;28;20053;-63
2023/03/02 04:25:24;;;;;;;34.15;18.00;;;3.10;99.90;;;;;;5038617;28;20053;-63
2023/03/02 04:27:53;;;;;;;30.65;17.27;;;3.10;99.90;;;;;;5050239;28;20040;-63
2023/03/02 04:30:23;;;;;;;36.78;19.10;;;3.10;99.90;;;;;;5069379;28;20407;-63
2023/03/02 04:32:48;;;;;;;34.95;17.77;;;3.10;99.90;;;;;;5042239;28;20045;-63
2023/03/02 04:35:15;;;;;;;34.60;18.15;;;3.10;99.90;;;;;;5051965;28;20055;-64
2023/03/02 04:37:41;;;;;;;34.90;18.63;;;3.10;99.90;;;;;;5069861;28;20083;-63
2023/03/02 04:40:08;;;;;;;33.00;18.15;;;3.10;99.90;;;;;;5069121;28;20509;-64
2023/03/02 04:42:34;;;;;;;36.83;18.83;;;3.10;99.90;;;;;;5047940;28;20041;-63
2023/03/02 04:45:00;;;;;;;34.30;17.52;;;3.10;99.90;;;;;;5084447;22;20045;-75
2023/03/02 04:47:26;;;;;;;38.08;19.42;;;3.10;99.90;;;;;;5054913;28;20077;-75
2023/03/02 04:49:53;;;;;;;34.92;18.08;;;3.10;99.90;;;;;;5055314;28;20037;-77
2023/03/02 04:52:23;;;;;;;35.63;18.10;;;3.00;99.90;;;;;;5035735;28;20037;-75
2023/03/02 04:54:49;;;;;;;34.33;18.42;;;3.10;99.90;;;;;;5035508;28;20037;-75
2023/03/02 04:57:15;;;;;;;36.13;18.63;;;3.10;99.90;;;;;;5051997;28;20522;-75
2023/03/02 04:59:41;;;;;;;33.30;17.52;;;3.10;99.90;;;;;;5072753;28;20040;-75
2023/03/02 05:02:06;;;;;;;36.28;18.23;;;3.10;99.90;;;;;;5036730;28;20397;-75
2023/03/02 05:04:32;;;;;;;33.35;17.30;;;3.10;99.90;;;;;;5054930;28;20036;-76
2023/03/02 05:06:58;;;;;;;35.50;18.48;;;3.10;99.90;;;;;;5072478;28;20132;-77
2023/03/02 05:09:29;;;;;;;32.13;17.60;;;3.10;99.90;;;;;;5073928;28;20470;-77
2023/03/02 05:11:56;;;;;;;34.65;17.35;;;3.00;99.90;;;;;;5052115;28;20459;-76
2023/03/02 05:14:25;;;;;;;32.75;18.10;;;3.00;99.90;;;;;;5048084;28;20059;-81
2023/03/02 05:16:51;;;;;;;34.03;18.10;;;3.00;99.90;;;;;;5037667;28;20074;-81
2023/03/02 05:19:17;;;;;;;34.42;18.27;;;3.00;99.90;;;;;;5043662;28;20518;-81
2023/03/02 05:21:44;;;;;;;35.75;18.65;;;3.10;99.90;;;;;;5042912;28;20355;-81
2023/03/02 05:24:12;;;;;;;34.38;18.58;;;3.10;99.90;;;;;;5070033;28;20377;-80
2023/03/02 05:26:38;;;;;;;34.22;17.80;;;3.10;99.90;;;;;;5057587;28;20516;-80
2023/03/02 05:29:04;;;;;;;34.58;17.90;;;3.00;99.90;;;;;;5042624;28;20119;-80
2023/03/02 05:31:33;;;;;;;32.33;17.55;;;3.10;99.90;;;;;;5041570;28;20037;-80
2023/03/02 05:34:00;;;;;;;33.97;18.02;;;3.00;99.90;;;;;;5049848;28;20460;-80
2023/03/02 05:36:26;;;;;;;35.00;18.50;;;4.20;99.90;;;;;;5069147;28;20041;-80
2023/03/02 05:38:52;;;;;;;32.10;17.70;;;3.00;99.90;;;;;;5061166;28;20096;-79
2023/03/02 05:41:17;;;;;;;32.80;18.10;;;3.00;99.90;;;;;;5063468;28;20033;-80
2023/03/02 05:43:43;;;;;;;38.53;19.65;;;3.00;99.90;;;;;;5063451;28;20040;-80
2023/03/02 05:46:09;;;;;;;34.95;18.25;;;3.00;99.90;;;;;;5054220;28;20039;-81
2023/03/02 05:48:35;;;;;;;39.17;20.30;;;3.00;99.90;;;;;;5045602;28;20040;-81
2023/03/02 05:51:01;;;;;;;36.20;18.48;;;3.00;99.90;;;;;;5058481;28;20071;-81
2023/03/02 05:56:14;;;;;;;39.55;20.25;;;3.00;99.90;;;;;;5059004;22;20403;-61
2023/03/02 05:58:39;;;;;;;35.55;18.77;;;2.90;99.90;;;;;;5068256;28;20168;-61
2023/03/02 06:01:10;;;;;;;39.05;20.15;;;3.00;99.90;;;;;;5051736;28;20036;-61
2023/03/02 06:03:35;;;;;;;35.88;19.25;;;2.90;99.90;;;;;;5027923;28;20126;-61
2023/03/02 06:06:01;;;;;;;39.42;19.98;;;2.90;99.90;;;;;;5040573;28;20068;-61
2023/03/02 06:08:27;;;;;;;38.05;18.77;;;2.90;99.90;;;;;;5064788;28;20086;-64
2023/03/02 06:10:57;;;;;;;35.42;17.88;;;2.90;99.90;;;;;;5051309;28;20076;-60
2023/03/02 06:13:22;;;;;;;38.05;18.80;;;2.80;99.90;;;;;;5025054;28;20490;-60
2023/03/02 06:15:48;;;;;;;39.08;19.65;;;2.80;99.90;;;;;;5044880;28;20080;-61
2023/03/02 06:18:14;;;;;;;40.92;20.23;;;2.80;99.90;;;;;;5047813;28;20040;-62
2023/03/02 06:20:40;;;;;;;39.25;19.67;;;2.80;99.90;;;;;;5057945;28;20041;-61
2023/03/02 06:23:06;;;;;;;43.35;20.75;;;2.80;99.90;;;;;;5040696;28;20120;-60
2023/03/02 06:25:32;;;;;;;42.13;20.33;;;2.80;99.90;;;;;;5036645;28;20125;-60
2023/03/02 06:27:58;;;;;;;40.55;19.70;;;2.80;99.90;;;;;;5069388;28;20037;-62
2023/03/02 06:30:24;;;;;;;40.65;20.63;;;2.80;99.90;;;;;;5067468;28;20455;-66
2023/03/02 06:32:50;;;;;;;39.60;19.75;;;2.80;99.90;;;;;;5056558;28;20037;-62
2023/03/02 06:35:16;;;;;;;44.45;21.58;;;2.80;99.90;;;;;;5062822;28;20442;-61
2023/03/02 06:37:42;;;;;;;45.45;21.02;;;2.80;99.90;;;;;;5039229;28;20041;-64
2023/03/02 06:40:12;;;;;;;40.05;20.13;;;2.80;99.90;;;;;;5058029;28;20520;-65
2023/03/02 06:42:38;;;;;;;39.38;20.33;;;2.80;99.90;;;;;;5043876;28;20080;-65
2023/03/02 06:45:06;;;;;;;41.45;20.75;;;2.80;99.90;;;;;;5053096;28;20101;-62
2023/03/02 06:47:32;;;;;;;44.90;21.10;;;2.80;99.90;;;;;;5052835;28;20032;-61
2023/03/02 06:49:58;;;;;;;42.88;20.05;;;2.80;99.90;;;;;;5044380;28;20045;-63
2023/03/02 06:52:25;;;;;;;44.25;20.90;;;2.80;99.90;;;;;;5061485;28;20597;-61
2023/03/02 06:54:50;;;;;;;43.65;21.23;;;2.80;99.90;;;;;;5061090;28;20041;-62
2023/03/02 06:57:16;;;;;;;44.95;22.20;;;2.80;99.90;;;;;;5064283;28;20039;-61
2023/03/02 06:59:41;;;;;;;43.03;21.25;;;2.80;99.90;;;;;;5044101;28;20040;-61
2023/03/02 07:02:09;;;;;;;41.05;20.50;;;2.80;99.90;;;;;;5057125;28;20079;-61
2023/03/02 07:04:34;;;;;;;45.53;21.38;;;2.80;99.90;;;;;;5054442;28;20075;-62
2023/03/02 07:07:00;;;;;;;42.30;20.27;;;2.80;99.90;;;;;;5058756;28;20469;-60
2023/03/02 07:09:26;;;;;;;49.10;21.60;;;2.80;99.90;;;;;;5038936;28;20324;-60
2023/03/02 07:11:51;;;;;;;46.30;21.40;;;2.80;99.90;;;;;;5067593;28;20067;-63
2023/03/02 07:14:17;;;;;;;47.47;21.38;;;2.80;99.90;;;;;;5035059;28;20056;-62
2023/03/02 07:16:43;;;;;;;47.00;21.30;;;2.90;99.90;;;;;;5063075;28;20032;-64
2023/03/02 07:19:12;;;;;;;48.42;21.20;;;2.90;99.90;;;;;;5056091;28;20045;-62
2023/03/02 07:21:38;;;;;;;47.42;21.35;;;2.90;99.90;;;;;;5054273;28;20094;-65
2023/03/02 07:24:03;;;;;;;51.25;23.25;;;2.90;99.90;;;;;;5066293;28;20398;-62
2023/03/02 07:26:29;;;;;;;49.80;23.85;;;2.90;99.90;;;;;;5041384;28;20135;-63
2023/03/02 07:28:58;;;;;;;54.58;23.70;;;2.90;99.90;;;;;;5054337;28;20098;-62
2023/03/02 07:31:24;;;;;;;47.42;21.55;;;2.90;99.90;;;;;;5052663;28;20434;-63
2023/03/02 07:33:49;;;;;;;50.92;22.52;;;2.90;99.90;;;;;;5043349;28;20041;-62
2023/03/02 07:36:15;;;;;;;54.38;23.10;;;3.00;99.90;;;;;;5038211;28;20078;-65
2023/03/02 07:38:41;;;;;;;53.58;23.48;;;3.00;99.90;;;;;;5051997;28;20529;-62
2023/03/02 07:41:08;;;;;;;51.80;23.48;;;3.00;99.90;;;;;;5060257;28;20032;-62
2023/03/02 07:43:35;;;;;;;51.03;23.52;;;3.00;99.90;;;;;;5054622;28;20560;-64
2023/03/02 07:46:03;;;;;;;50.00;22.45;;;3.00;99.90;;;;;;5052000;28;20048;-61
2023/03/02 07:48:29;;;;;;;44.35;21.45;;;3.00;99.90;;;;;;5034979;28;20045;-61
2023/03/02 07:50:59;;;;;;;47.88;22.48;;;3.00;99.90;;;;;;5054376;28;20548;-61
2023/03/02 07:53:25;;;;;;;44.67;20.52;;;3.00;99.90;;;;;;5053651;28;20498;-61
2023/03/02 07:55:50;;;;;;;46.65;22.15;;;3.00;99.90;;;;;;5032984;28;20101;-61
2023/03/02 07:58:16;;;;;;;46.72;21.17;;;3.00;99.90;;;;;;5035445;28;20040;-62
2023/03/02 08:00:42;;;;;;;48.47;22.15;;;3.00;99.90;;;;;;5050655;28;20402;-65
2023/03/02 08:03:07;;;;;;;46.42;21.25;;;3.00;99.90;;;;;;5017728;28;20513;-61
2023/03/02 08:05:33;;;;;;;46.05;21.92;;;3.10;99.90;;;;;;5055845;28;20040;-61
2023/03/02 08:07:58;;;;;;;46.50;21.52;;;3.00;99.90;;;;;;5055631;28;20428;-62
2023/03/02 08:10:24;;;;;;;41.13;20.40;;;3.00;99.90;;;;;;5054678;28;20146;-64
2023/03/02 08:12:50;;;;;;;39.78;18.40;;;3.00;99.90;;;;;;5055070;28;20065;-61
2023/03/02 08:15:15;;;;;;;34.47;18.60;;;3.10;99.90;;;;;;5038836;28;20033;-61
2023/03/02 08:17:41;;;;;;;36.92;18.42;;;3.10;99.90;;;;;;5057307;28;20112;-62
2023/03/02 08:20:07;;;;;;;35.97;18.27;;;3.00;99.90;;;;;;5058484;28;20029;-62
2023/03/02 08:22:33;;;;;;;35.67;17.58;;;3.00;99.90;;;;;;5053729;28;20044;-62
2023/03/02 08:24:59;;;;;;;35.30;18.42;;;3.10;99.90;;;;;;5057894;28;20123;-63
2023/03/02 08:27:24;;;;;;;36.08;19.23;;;3.10;99.90;;;;;;5057992;28;20490;-60
2023/03/02 08:29:50;;;;;;;37.17;18.55;;;3.10;99.90;;;;;;5042251;28;20033;-62
2023/03/02 08:32:15;;;;;;;39.15;18.98;;;3.10;99.90;;;;;;5043713;28;20478;-63
2023/03/02 08:34:41;;;;;;;38.70;18.85;;;3.20;99.90;;;;;;5057665;28;20029;-65
2023/03/02 08:37:07;;;;;;;34.25;18.92;;;3.20;99.90;;;;;;5059197;28;20028;-64
2023/03/02 08:39:33;;;;;;;38.65;19.20;;;3.20;99.90;;;;;;5048992;28;20127;-65
2023/03/02 08:41:58;;;;;;;35.83;19.13;;;3.20;99.90;;;;;;5047104;28;20059;-63
2023/03/02 08:44:24;;;;;;;39.83;19.45;;;3.00;99.90;;;;;;5047354;28;20036;-63
2023/03/02 08:46:51;;;;;;;37.28;18.65;;;3.20;99.90;;;;;;5064997;28;20044;-62
2023/03/02 08:49:17;;;;;;;36.40;18.75;;;3.30;99.90;;;;;;5068343;28;20372;-62
2023/03/02 08:51:44;;;;;;;36.47;18.55;;;3.30;99.90;;;;;;5043328;28;20131;-66
2023/03/02 08:54:10;;;;;;;33.95;18.38;;;3.30;99.90;;;;;;5050067;28;20056;-65
2023/03/02 08:56:37;;;;;;;36.03;17.73;;;3.30;99.90;;;;;;5065443;28;20025;-64
2023/03/02 08:59:06;;;;;;;33.03;17.38;;;3.30;99.90;;;;;;5058418;28;20068;-63
2023/03/02 09:01:34;;;;;;;35.50;19.30;;;3.40;99.90;;;;;;5068530;28;20029;-64
2023/03/02 09:04:00;;;;;;;34.78;18.17;;;3.40;99.90;;;;;;5039005;28;20323;-63
2023/03/02 09:06:27;;;;;;;33.25;17.30;;;3.40;99.90;;;;;;5059996;28;20059;-65
2023/03/02 09:08:53;;;;;;;32.95;17.20;;;3.50;99.90;;;;;;5064449;28;20040;-61
2023/03/02 09:11:19;;;;;;;38.38;19.45;;;3.50;99.90;;;;;;5041923;28;20098;-62
2023/03/02 09:13:44;;;;;;;36.42;18.38;;;3.50;99.90;;;;;;5065407;28;20450;-63
2023/03/02 09:16:11;;;;;;;35.80;18.67;;;3.60;99.90;;;;;;5060481;28;20044;-66
2023/03/02 09:18:37;;;;;;;35.17;19.40;;;3.60;99.90;;;;;;5051832;28;20101;-62
2023/03/02 09:21:03;;;;;;;35.72;18.75;;;3.60;99.90;;;;;;5069320;28;20040;-63
2023/03/02 09:23:29;;;;;;;37.10;19.20;;;3.60;99.90;;;;;;5047243;28;20047;-64
2023/03/02 09:25:55;;;;;;;34.45;17.67;;;3.70;99.90;;;;;;5051709;28;20494;-63
2023/03/02 09:28:21;;;;;;;35.42;18.38;;;3.70;99.90;;;;;;5036230;28;20047;-66
2023/03/02 09:30:52;;;;;;;32.38;17.30;;;3.70;99.90;;;;;;5068611;28;20544;-62
2023/03/02 09:33:18;;;;;;;33.70;17.67;;;3.80;99.90;;;;;;5044092;28;20448;-63
2023/03/02 09:35:45;;;;;;;32.80;17.20;;;3.80;99.90;;;;;;5047623;28;20054;-62
2023/03/02 09:38:14;;;;;;;33.55;17.85;;;3.80;99.90;;;;;;5057965;28;20554;-64
2023/03/02 09:40:55;;;;;;;33.20;18.08;;;3.90;99.90;;;;;;5050702;28;20048;-62
2023/03/02 09:43:48;;;;;;;35.00;18.55;;;3.90;99.90;;;;;;5060943;28;20075;-62
2023/03/02 09:46:39;;;;;;;34.67;18.20;;;4.00;99.90;;;;;;5049682;28;20040;-62
2023/03/02 09:49:38;;;;;;;33.47;18.73;;;4.00;99.90;;;;;;5064223;28;20087;-64
2023/03/02 09:52:25;;;;;;;33.78;17.90;;;4.00;99.90;;;;;;5070953;28;20052;-62
2023/03/02 09:54:50;;;;;;;33.20;17.75;;;4.00;99.90;;;;;;5050226;28;20067;-63
2023/03/02 09:57:22;;;;;;;35.83;18.70;;;4.00;99.90;;;;;;5069123;28;20077;-63
2023/03/02 09:59:55;;;;;;;30.50;17.45;;;4.00;99.90;;;;;;5067484;28;20486;-62
2023/03/02 10:02:29;;;;;;;28.75;16.75;;;4.10;99.90;;;;;;5052369;28;20112;-63
2023/03/02 10:04:59;;;;;;;29.27;16.08;;;4.00;99.90;;;;;;5070116;28;20036;-61
2023/03/02 10:07:37;;;;;;;29.73;16.02;;;4.00;99.90;;;;;;5068096;28;20036;-61
2023/03/02 10:10:21;;;;;;;30.42;16.48;;;4.10;99.90;;;;;;5070550;28;20040;-61
2023/03/02 10:13:12;;;;;;;28.27;16.30;;;4.20;99.90;;;;;;5068837;28;20072;-61
2023/03/02 10:15:57;;;;;;;31.48;16.70;;;4.20;99.90;;;;;;5050879;28;20071;-61
2023/03/02 10:18:29;;;;;;;27.85;15.27;;;4.30;99.90;;;;;;5036433;28;20120;-63
2023/03/02 10:20:58;;;;;;;27.02;15.85;;;4.40;99.90;;;;;;5042645;28;20040;-61
2023/03/02 10:23:39;;;;;;;29.30;16.88;;;4.40;99.90;;;;;;5058111;28;20275;-65
2023/03/02 10:26:22;;;;;;;33.38;17.08;;;4.40;99.90;;;;;;5051767;28;20794;-62
2023/03/02 10:28:48;;;;;;;;;;;4.50;99.90;;;;;;5052089;28;20036;-64
2023/03/02 10:31:27;;;;;;;28.88;15.85;;;4.50;99.90;;;;;;5057133;28;20525;-65
2023/03/02 10:33:53;;;;;;;30.52;17.20;;;4.60;99.90;;;;;;5054708;28;20368;-63
2023/03/02 10:36:38;;;;;;;29.70;16.13;;;4.60;99.90;;;;;;5055601;28;20033;-65
2023/03/02 10:39:14;;;;;;;30.30;17.88;;;4.60;99.90;;;;;;5056631;28;20032;-63
2023/03/02 10:41:48;;;;;;;30.08;16.95;;;4.70;99.90;;;;;;5058511;28;20036;-62
2023/03/02 10:44:35;;;;;;;59.35;30.48;;;4.70;99.90;;;;;;5056757;28;20029;-62
2023/03/02 10:47:01;;;;;;;35.42;19.90;;;4.70;99.90;;;;;;5056002;28;20036;-62
2023/03/02 10:49:34;;;;;;;30.35;17.77;;;4.80;99.90;;;;;;5057863;28;20040;-65
2023/03/02 10:52:01;;;;;;;;;;;4.80;99.90;;;;;;5041164;28;20043;-63
2023/03/02 10:54:29;;;;;;;27.58;15.75;;;4.80;99.90;;;;;;5055997;28;19969;-65
2023/03/02 10:57:01;;;;;;;25.80;14.90;;;4.90;99.90;;;;;;5036347;28;20040;-62
2023/03/02 10:59:44;;;;;;;24.90;14.77;;;5.10;99.90;;;;;;5033088;28;20801;-63
2023/03/02 11:02:14;;;;;;;24.67;14.65;;;5.30;99.90;;;;;;5053998;28;20044;-63
2023/03/02 11:04:40;;;;;;;26.40;16.02;;;5.40;99.90;;;;;;5034842;28;20094;-63
2023/03/02 11:07:14;;;;;;;25.08;15.05;;;5.40;99.90;;;;;;5047547;28;20048;-65
2023/03/02 11:09:39;;;;;;;27.27;15.88;;;5.40;99.90;;;;;;5039636;28;20060;-64
2023/03/02 11:12:15;;;;;;;25.10;15.68;;;5.60;99.90;;;;;;5060969;28;20032;-62
2023/03/02 11:14:41;;;;;;;26.05;15.68;;;5.80;99.90;;;;;;5032306;28;20036;-63
2023/03/02 11:17:30;;;;;;;26.10;15.73;;;6.20;99.90;;;;;;5047760;28;20040;-63
2023/03/02 11:19:56;;;;;;;31.10;17.67;;;6.50;99.90;;;;;;5037155;28;20037;-64
2023/03/02 11:22:58;;;;;;;27.63;16.90;;;6.60;99.90;;;;;;5040398;28;20039;-64
2023/03/02 11:25:37;;;;;;;26.88;16.48;;;6.60;99.90;;;;;;5062658;28;20101;-66
2023/03/02 11:28:31;;;;;;;28.60;17.10;;;6.70;99.90;;;;;;5064924;28;20033;-63
2023/03/02 11:30:59;;;;;;;28.17;17.55;;;6.70;99.90;;;;;;5051048;28;20045;-63
2023/03/02 11:33:41;;;;;;;28.42;17.10;;;6.70;99.90;;;;;;5037479;28;20044;-63
2023/03/02 11:36:13;;;;;;;27.77;16.88;;;6.70;99.90;;;;;;5041169;28;20040;-63
2023/03/02 11:38:52;;;;;;;30.15;17.35;;;6.90;99.90;;;;;;5042293;28;20048;-63
2023/03/02 11:41:32;;;;;;;28.88;17.58;;;7.20;99.90;;;;;;5041250;28;20495;-63
2023/03/02 11:44:00;;;;;;;28.63;17.85;;;7.40;99.90;;;;;;5067328;28;20044;-64
2023/03/02 11:46:30;;;;;;;59.17;38.03;;;7.60;99.90;;;;;;5061263;28;20502;-66
2023/03/02 11:49:04;;;;;;;28.98;19.67;;;7.70;99.90;;;;;;5046438;28;20060;-66
2023/03/02 11:51:35;;;;;;;29.20;18.60;;;7.80;99.90;;;;;;5061250;28;20048;-63
2023/03/02 11:54:04;;;;;;;26.80;16.85;;;7.80;99.90;;;;;;5062579;28;20398;-64
2023/03/02 11:56:37;;;;;;;27.55;17.35;;;7.80;99.90;;;;;;5065170;28;20409;-63
2023/03/02 11:59:10;;;;;;;25.00;16.40;;;7.70;99.90;;;;;;5071749;28;20036;-64
2023/03/02 12:01:39;;;;;;;26.30;16.63;;;7.70;99.90;;;;;;5061484;28;20037;-63
2023/03/02 12:04:10;;;;;;;29.38;17.05;;;7.70;99.90;;;;;;5061650;28;20047;-63
2023/03/02 12:06:42;;;;;;;27.40;16.95;;;7.80;99.90;;;;;;5055230;28;20048;-63
2023/03/02 12:09:29;;;;;;;;;;;7.80;99.90;;;;;;5055729;28;20052;-63
2023/03/02 12:12:32;;;;;;;26.02;16.75;;;7.90;99.90;;;;;;5051730;28;19917;-64
2023/03/02 12:14:58;;;;;;;27.75;16.80;;;7.90;99.90;;;;;;5049516;28;20052;-64
2023/03/02 12:17:24;;;;;;;26.65;16.52;;;8.10;99.90;;;;;;5057589;28;20556;-64
2023/03/02 12:20:06;;;;;;;27.92;17.55;;;8.20;99.90;;;;;;5035813;28;20053;-63
2023/03/02 12:22:32;;;;;;;27.63;17.50;;;8.30;99.90;;;;;;5042828;28;20474;-63
2023/03/02 12:25:26;;;;;;;26.40;17.10;;;8.40;99.90;;;;;;5062928;28;20290;-64
2023/03/02 12:30:27;;;;;;;26.42;17.38;;;8.40;99.90;;;;;;5050377;28;20570;-63
2023/03/02 12:33:00;;;;;;;29.52;17.45;;;8.40;99.90;;;;;;5033576;28;20487;-63
2023/03/02 12:35:30;;;;;;;26.05;17.27;;;8.50;99.90;;;;;;5050033;28;20041;-64
2023/03/02 12:38:29;;;;;;;27.58;17.63;;;8.50;99.90;;;;;;5051279;28;20079;-63
2023/03/02 12:41:29;;;;;;;26.98;18.00;;;8.50;99.90;;;;;;5065794;28;20116;-62
2023/03/02 12:44:12;;;;;;;26.40;17.13;;;8.50;99.90;;;;;;5048301;28;20041;-63
2023/03/02 12:46:39;;;;;;;27.17;17.23;;;8.50;99.90;;;;;;5052331;28;20312;-63
2023/03/02 12:49:30;;;;;;;29.08;17.67;;;8.50;99.90;;;;;;5034971;28;20076;-62
2023/03/02 12:51:59;;;;;;;27.63;17.10;;;8.60;99.90;;;;;;5037732;28;20045;-62
2023/03/02 12:54:31;;;;;;;28.35;17.70;;;8.60;99.90;;;;;;5032408;28;20133;-62
2023/03/02 12:57:14;;;;;;;27.40;18.13;;;8.50;99.90;;;;;;5031935;28;20108;-62